Time;durP1;ratioP1;P1;durP2;ratioP2;P2;SDS_P1;SDS_P2;PMS_P1;PMS_P2;Temp;Humidity;BMP_temperature;BMP_pressure;BME280_temperature;BME280_humidity;BME280_pressure;Samples;Min_cycle;Max_cycle;Signal;HPM_P1;HPM_P2
2023/03/29 00:01:05;;;;;;;;;;;;;;;20.13;41.88;101588.94;4960572;28;2695;-61
2023/03/29 00:03:32;;;;;;;;;;;;;;;20.12;41.97;101581.69;4954014;28;2963;-61
2023/03/29 00:06:01;;;;;;;;;;;;;;;20.14;42.02;101585.44;4962116;28;2813;-61
2023/03/29 00:08:28;;;;;;;;;;;;;;;20.14;42.14;101584.69;4960988;28;2654;-61
2023/03/29 00:10:55;;;;;;;;;;;;;;;20.15;42.05;101577.56;4958608;28;3082;-61
2023/03/29 00:13:22;;;;;;;;;;;;;;;20.15;42.21;101578.28;4961283;28;2797;-60
2023/03/29 00:15:48;;;;;;;;;;;;;;;20.17;41.96;101583.41;4961387;28;2883;-61
2023/03/29 00:18:14;;;;;;;;;;;;;;;20.17;42.22;101569.03;4955760;28;3011;-61
2023/03/29 00:20:41;;;;;;;;;;;;;;;20.17;42.24;101571.91;4961408;28;3205;-61
2023/03/29 00:23:07;;;;;;;;;;;;;;;20.11;42.28;101555.03;4960006;28;2834;-61
2023/03/29 00:25:33;;;;;;;;;;;;;;;20.15;42.30;101557.41;4959489;28;2874;-61
2023/03/29 00:28:00;;;;;;;;;;;;;;;20.14;42.29;101550.94;4959258;28;3289;-61
2023/03/29 00:30:26;;;;;;;;;;;;;;;20.15;42.38;101563.16;4939075;28;2785;-60
2023/03/29 00:32:52;;;;;;;;;;;;;;;20.09;42.35;101560.69;4956446;28;2835;-61
2023/03/29 00:35:19;;;;;;;;;;;;;;;20.06;42.26;101556.94;4961053;28;2590;-61
2023/03/29 00:37:49;;;;;;;;;;;;;;;20.05;42.27;101554.72;4948192;28;2970;-61
2023/03/29 00:40:16;;;;;;;;;;;;;;;20.06;42.24;101548.31;4945008;28;1877;-60
2023/03/29 00:42:43;;;;;;;;;;;;;;;20.06;42.13;101556.19;4961844;28;3038;-61
2023/03/29 00:45:17;;;;;;;;;;;;;;;20.06;42.50;101542.56;4953319;28;2903;-61
2023/03/29 00:47:45;;;;;;;;;;;;;;;20.09;42.31;101549.94;4957148;28;2755;-61
2023/03/29 00:50:21;;;;;;;;;;;;;;;20.08;42.49;101542.69;4945365;28;2537;-61
2023/03/29 00:52:49;;;;;;;;;;;;;;;20.08;42.62;101536.94;4958758;28;2816;-61
2023/03/29 00:55:16;;;;;;;;;;;;;;;20.09;42.61;101541.31;4955266;28;3031;-61
2023/03/29 00:57:45;;;;;;;;;;;;;;;20.12;42.46;101532.81;4940824;28;2978;-61
2023/03/29 01:00:13;;;;;;;;;;;;;;;20.13;42.45;101525.66;4946009;28;2812;-61
2023/03/29 01:02:39;;;;;;;;;;;;;;;20.14;42.54;101521.44;4937805;28;3250;-60
2023/03/29 01:05:07;;;;;;;;;;;;;;;20.14;42.60;101530.06;4922433;28;2755;-61
2023/03/29 01:07:39;;;;;;;;;;;;;;;20.13;42.41;101514.16;4944022;28;2778;-61
2023/03/29 01:10:10;;;;;;;;;;;;;;;20.12;42.34;101524.94;4929625;28;2955;-61
2023/03/29 01:12:39;;;;;;;;;;;;;;;20.09;42.43;101503.94;4926064;28;2804;-61
2023/03/29 01:15:08;;;;;;;;;;;;;;;20.06;42.62;101499.44;4946464;28;2723;-61
2023/03/29 01:17:34;;;;;;;;;;;;;;;20.04;42.50;101502.22;4938534;28;2769;-61
2023/03/29 01:20:09;;;;;;;;;;;;;;;20.06;42.37;101487.94;4937845;28;2880;-61
2023/03/29 01:22:44;;;;;;;;;;;;;;;20.08;42.56;101490.19;4947139;28;2512;-61
2023/03/29 01:25:25;;;;;;;;;;;;;;;20.07;42.47;101495.19;4963640;28;2721;-61
2023/03/29 01:28:10;;;;;;;;;;;;;;;20.08;42.44;101478.69;4960002;28;3181;-61
2023/03/29 01:30:39;;;;;;;;;;;;;;;20.08;42.27;101479.44;4931195;28;2770;-60
2023/03/29 01:33:09;;;;;;;;;;;;;;;20.09;42.33;101475.19;4961430;28;2849;-61
2023/03/29 01:35:41;;;;;;;;;;;;;;;20.10;42.46;101475.94;4948718;28;2664;-60
2023/03/29 01:38:12;;;;;;;;;;;;;;;20.13;42.62;101471.03;4947172;28;2760;-61
2023/03/29 01:40:38;;;;;;;;;;;;;;;20.13;42.68;101468.91;4964284;28;2279;-61
2023/03/29 01:43:16;;;;;;;;;;;;;;;20.12;42.75;101455.91;4964011;28;2839;-61
2023/03/29 01:45:45;;;;;;;;;;;;;;;20.08;42.73;101456.41;4958810;28;2773;-61
2023/03/29 01:48:24;;;;;;;;;;;;;;;20.07;42.67;101457.81;4962175;28;2836;-61
2023/03/29 01:50:53;;;;;;;;;;;;;;;20.09;42.60;101455.06;4931637;28;2764;-61
2023/03/29 01:53:23;;;;;;;;;;;;;;;20.12;42.62;101455.91;4935218;28;1680;-61
2023/03/29 01:55:50;;;;;;;;;;;;;;;20.11;42.62;101442.16;4966491;28;1632;-61
2023/03/29 01:58:17;;;;;;;;;;;;;;;20.11;42.58;101445.03;4934111;28;2728;-61
2023/03/29 02:00:44;;;;;;;;;;;;;;;20.08;42.55;101439.16;4960288;28;2916;-61
2023/03/29 02:03:13;;;;;;;;;;;;;;;20.05;42.61;101440.44;4960072;28;2650;-61
2023/03/29 02:05:41;;;;;;;;;;;;;;;20.01;42.76;101434.47;4963490;28;2782;-63
2023/03/29 02:08:07;;;;;;;;;;;;;;;20.01;42.73;101440.22;4948403;28;2796;-61
2023/03/29 02:10:34;;;;;;;;;;;;;;;20.05;42.54;101431.09;4959693;28;2766;-61
2023/03/29 02:13:01;;;;;;;;;;;;;;;20.06;42.59;101436.19;4942690;28;2892;-61
2023/03/29 02:15:31;;;;;;;;;;;;;;;20.08;42.51;101424.78;4945506;28;2895;-61
2023/03/29 02:17:57;;;;;;;;;;;;;;;20.11;42.77;101424.91;4963964;28;2657;-61
2023/03/29 02:20:25;;;;;;;;;;;;;;;20.15;42.72;101419.41;4943358;28;2861;-61
2023/03/29 02:23:07;;;;;;;;;;;;;;;20.16;42.50;101403.63;4937955;28;3097;-61
2023/03/29 02:25:34;;;;;;;;;;;;;;;20.17;42.57;101402.25;4964637;28;2749;-61
2023/03/29 02:28:00;;;;;;;;;;;;;;;20.17;42.78;101405.88;4962818;28;2895;-61
2023/03/29 02:30:45;;;;;;;;;;;;;;;20.17;42.63;101396.50;4942667;28;2958;-60
2023/03/29 02:33:22;;;;;;;;;;;;;;;20.15;42.54;101394.25;4944260;28;2840;-61
2023/03/29 02:35:57;;;;;;;;;;;;;;;20.16;42.57;101397.88;4946363;28;3105;-61
2023/03/29 02:38:24;;;;;;;;;;;;;;;20.14;42.71;101406.41;4929074;28;2786;-61
2023/03/29 02:40:51;;;;;;;;;;;;;;;20.09;42.82;101394.69;4944062;28;2971;-60
2023/03/29 02:43:18;;;;;;;;;;;;;;;20.08;42.71;101393.16;4946110;28;3043;-60
2023/03/29 02:45:44;;;;;;;;;;;;;;;20.08;42.73;101384.53;4945013;28;2799;-61
2023/03/29 02:48:12;;;;;;;;;;;;;;;20.08;42.72;101387.41;4944195;28;2792;-60
2023/03/29 02:50:38;;;;;;;;;;;;;;;20.10;42.81;101383.91;4928664;28;2782;-61
2023/03/29 02:53:15;;;;;;;;;;;;;;;20.12;42.89;101380.41;4959916;28;2792;-61
2023/03/29 02:55:45;;;;;;;;;;;;;;;20.13;43.01;101370.41;4959323;28;2832;-60
2023/03/29 02:58:12;;;;;;;;;;;;;;;20.13;42.64;101361.78;4944973;28;2937;-60
2023/03/29 03:00:41;;;;;;;;;;;;;;;20.14;42.70;101357.53;4961190;28;2820;-61
2023/03/29 03:03:08;;;;;;;;;;;;;;;20.14;42.64;101364.03;4960783;28;3174;-61
2023/03/29 03:05:35;;;;;;;;;;;;;;;20.16;42.80;101360.50;4942428;28;2835;-63
2023/03/29 03:08:01;;;;;;;;;;;;;;;20.17;42.82;101359.13;4942609;28;2799;-61
2023/03/29 03:10:28;;;;;;;;;;;;;;;20.17;42.70;101359.88;4934689;28;2808;-61
2023/03/29 03:12:55;;;;;;;;;;;;;;;20.18;42.77;101361.38;4944744;28;2634;-60
2023/03/29 03:15:23;;;;;;;;;;;;;;;20.18;42.70;101355.63;4937240;28;3258;-60
2023/03/29 03:17:49;;;;;;;;;;;;;;;20.18;42.96;101347.00;4961045;28;2922;-60
2023/03/29 03:20:15;;;;;;;;;;;;;;;20.18;43.14;101349.09;4954238;28;2684;-61
2023/03/29 03:22:42;;;;;;;;;;;;;;;20.18;43.18;101343.34;4942194;28;2691;-60
2023/03/29 03:25:10;;;;;;;;;;;;;;;20.18;43.16;101349.09;4958432;28;2877;-61
2023/03/29 03:27:36;;;;;;;;;;;;;;;20.17;43.13;101336.13;4940461;28;2859;-61
2023/03/29 03:30:04;;;;;;;;;;;;;;;20.18;43.23;101337.59;4960295;28;2815;-61
2023/03/29 03:33:02;;;;;;;;;;;;;;;20.24;42.97;101329.31;4955371;28;2653;-60
2023/03/29 03:36:05;;;;;;;;;;;;;;;20.12;43.09;101334.41;4959836;28;2727;-60
2023/03/29 03:38:34;;;;;;;;;;;;;;;20.14;42.97;101331.66;4958344;28;2853;-60
2023/03/29 03:41:00;;;;;;;;;;;;;;;20.15;42.99;101325.25;4944958;28;2628;-60
2023/03/29 03:43:30;;;;;;;;;;;;;;;20.17;43.03;101324.63;4939900;28;2707;-60
2023/03/29 03:45:57;;;;;;;;;;;;;;;20.19;43.01;101324.75;4961768;28;2972;-60
2023/03/29 03:48:24;;;;;;;;;;;;;;;20.19;43.03;101327.63;4943615;28;2747;-60
2023/03/29 03:51:19;;;;;;;;;;;;;;;20.18;43.51;101332.63;4951610;28;2863;-60
2023/03/29 03:53:46;;;;;;;;;;;;;;;20.19;43.66;101333.38;4942755;28;2919;-60
2023/03/29 03:56:13;;;;;;;;;;;;;;;20.19;43.53;101319.00;4959267;28;2884;-61
2023/03/29 03:59:08;;;;;;;;;;;;;;;20.18;43.67;101326.88;4940060;28;3000;-60
2023/03/29 04:01:53;;;;;;;;;;;;;;;20.18;43.44;101314.59;4959892;28;2814;-60
2023/03/29 04:04:22;;;;;;;;;;;;;;;20.19;43.54;101307.50;4958494;28;2986;-60
2023/03/29 04:07:07;;;;;;;;;;;;;;;20.22;43.11;101314.84;4962097;28;2898;-61
2023/03/29 04:09:52;;;;;;;;;;;;;;;20.25;43.28;101320.06;4964196;28;2215;-61
2023/03/29 04:12:28;;;;;;;;;;;;;;;20.25;43.55;101313.56;4950399;28;2848;-61
2023/03/29 04:14:55;;;;;;;;;;;;;;;20.24;43.79;101309.19;4939480;28;2852;-60
2023/03/29 04:17:23;;;;;;;;;;;;;;;20.26;43.40;101315.06;4937293;28;3311;-61
2023/03/29 04:20:19;;;;;;;;;;;;;;;20.25;43.42;101316.44;4945825;28;2848;-61
2023/03/29 04:22:45;;;;;;;;;;;;;;;20.26;43.39;101315.78;4943250;28;2937;-61
2023/03/29 04:25:12;;;;;;;;;;;;;;;20.27;43.47;101310.78;4942959;28;3201;-61
2023/03/29 04:27:47;;;;;;;;;;;;;;;20.26;43.55;101304.28;4961902;28;2776;-60
2023/03/29 04:30:36;;;;;;;;;;;;;;;20.26;43.39;101310.03;4961941;28;2874;-60
2023/03/29 04:33:09;;;;;;;;;;;;;;;20.28;44.04;101312.28;4965954;28;2905;-60
2023/03/29 04:35:38;;;;;;;;;;;;;;;20.28;44.02;101303.66;4947537;28;2763;-62
2023/03/29 04:38:08;;;;;;;;;;;;;;;20.29;43.56;101308.78;4964357;28;2729;-62
2023/03/29 04:40:35;;;;;;;;;;;;;;;20.30;43.87;101306.66;4945648;28;2817;-61
2023/03/29 04:43:11;;;;;;;;;;;;;;;20.31;43.77;101299.50;4963212;28;2833;-61
2023/03/29 04:45:45;;;;;;;;;;;;;;;20.32;44.16;101301.00;4962976;28;2874;-61
2023/03/29 04:48:31;;;;;;;;;;;;;;;20.30;44.04;101298.75;4961556;28;2888;-61
2023/03/29 04:50:57;;;;;;;;;;;;;;;20.31;44.25;101299.50;4962086;28;2700;-61
2023/03/29 04:53:24;;;;;;;;;;;;;;;20.30;44.27;101292.28;4947530;28;2865;-61
2023/03/29 04:55:51;;;;;;;;;;;;;;;20.29;44.02;101290.75;4948734;28;2774;-60
2023/03/29 04:58:29;;;;;;;;;;;;;;;20.29;44.04;101285.78;4963152;28;2893;-61
2023/03/29 05:00:58;;;;;;;;;;;;;;;20.28;44.04;101281.41;4958414;28;3207;-61
2023/03/29 05:03:34;;;;;;;;;;;;;;;20.28;43.77;101281.41;4956189;28;3068;-60
2023/03/29 05:06:12;;;;;;;;;;;;;;;20.29;44.00;101279.25;4959749;28;2948;-60
2023/03/29 05:08:39;;;;;;;;;;;;;;;20.26;44.35;101280.53;4962078;28;2818;-61
2023/03/29 05:11:12;;;;;;;;;;;;;;;20.25;44.59;101279.06;4956141;28;2995;-61
2023/03/29 05:13:41;;;;;;;;;;;;;;;20.25;44.65;101279.81;4941804;28;2954;-62
2023/03/29 05:16:09;;;;;;;;;;;;;;;20.26;44.22;101274.78;4954140;28;3076;-62
2023/03/29 05:18:36;;;;;;;;;;;;;;;20.27;43.92;101267.66;4950085;28;2991;-61
2023/03/29 05:21:03;;;;;;;;;;;;;;;20.30;44.21;101270.00;4931489;28;3008;-61
2023/03/29 05:23:31;;;;;;;;;;;;;;;20.42;43.94;101275.66;4939840;28;2949;-60
2023/03/29 05:26:15;;;;;;;;;;;;;;;20.35;44.41;101265.22;4960022;28;3166;-59
2023/03/29 05:28:47;;;;;;;;;;;;;;;20.32;44.68;101271.47;4944015;28;3017;-60
2023/03/29 05:31:15;;;;;;;;;;;;;;;20.31;44.63;101270.75;4943621;28;3080;-60
2023/03/29 05:33:44;;;;;;;;;;;;;;;20.33;44.70;101278.75;4963093;28;2900;-60
2023/03/29 05:36:12;;;;;;;;;;;;;;;20.33;44.42;101267.97;4943296;28;3135;-59
2023/03/29 05:38:45;;;;;;;;;;;;;;;20.33;44.38;101273.00;4958692;28;2917;-60
2023/03/29 05:41:12;;;;;;;;;;;;;;;18.98;41.81;101260.50;4955734;28;3094;-60
2023/03/29 05:43:57;;;;;;;;;;;;;;;19.65;41.89;101270.06;4965194;28;2881;-60
2023/03/29 05:46:24;;;;;;;;;;;;;;;20.03;43.41;101270.72;4939890;28;3206;-60
2023/03/29 05:48:54;;;;;;;;;;;;;;;20.19;43.26;101267.22;4952936;28;2999;-61
2023/03/29 05:51:34;;;;;;;;;;;;;;;20.31;43.17;101270.75;4951899;28;3904;-62
2023/03/29 05:54:00;;;;;;;;;;;;;;;20.42;43.65;101264.16;4933467;28;3078;-62
2023/03/29 05:56:27;;;;;;;;;;;;;;;20.51;43.85;101260.31;4945406;28;2995;-62
2023/03/29 05:58:55;;;;;;;;;;;;;;;20.51;43.67;101271.81;4946072;28;5007;-65
2023/03/29 06:01:23;;;;;;;;;;;;;;;21.06;45.82;101264.53;4924573;28;5394;-62
2023/03/29 06:04:00;;;;;;;;;;;;;;;21.21;44.02;101255.22;4937582;28;5047;-62
2023/03/29 06:06:35;;;;;;;;;;;;;;;20.93;44.58;101258.13;4945227;28;2952;-62
2023/03/29 06:09:02;;;;;;;;;;;;;;;21.33;44.42;101255.78;4933160;28;5410;-63
2023/03/29 06:11:33;;;;;;;;;;;;;;;21.48;44.21;101256.50;4945415;28;3086;-65
2023/03/29 06:14:19;;;;;;;;;;;;;;;21.41;43.62;101263.38;4963564;28;3687;-69
2023/03/29 06:16:53;;;;;;;;;;;;;;;21.54;44.48;101259.69;4947622;28;6024;-64
2023/03/29 06:19:20;;;;;;;;;;;;;;;21.61;44.37;101257.84;4941293;28;2961;-64
2023/03/29 06:21:47;;;;;;;;;;;;;;;21.11;42.94;101254.69;4939809;28;2989;-65
2023/03/29 06:24:19;;;;;;;;;;;;;;;21.06;44.26;101250.13;4933688;28;6051;-62
2023/03/29 06:26:51;;;;;;;;;;;;;;;21.01;43.37;101252.06;4938094;28;3975;-60
2023/03/29 06:29:17;;;;;;;;;;;;;;;20.82;43.29;101250.41;4938004;28;6165;-67
2023/03/29 06:31:45;;;;;;;;;;;;;;;20.78;43.29;101247.31;4941219;28;3390;-70
2023/03/29 06:34:29;;;;;;;;;;;;;;;20.78;43.71;101253.06;4942964;28;3567;-72
2023/03/29 06:37:15;;;;;;;;;;;;;;;20.83;43.17;101243.25;4962024;28;3102;-75
2023/03/29 06:39:42;;;;;;;;;;;;;;;20.85;42.93;101249.13;4952028;28;3092;-77
2023/03/29 06:42:21;;;;;;;;;;;;;;;20.82;43.12;101247.53;4957115;28;5484;-69
2023/03/29 06:45:11;;;;;;;;;;;;;;;20.88;43.33;101244.94;4937206;28;3026;-61
2023/03/29 06:47:38;;;;;;;;;;;;;;;21.25;43.65;101251.78;4938880;28;3306;-63
2023/03/29 06:50:05;;;;;;;;;;;;;;;21.09;42.85;101245.94;4950784;28;3406;-56
2023/03/29 06:52:47;;;;;;;;;;;;;;;20.90;42.30;101247.19;4931626;28;3083;-55
2023/03/29 06:55:14;;;;;;;;;;;;;;;20.86;42.46;101241.22;4952044;28;2941;-55
2023/03/29 06:57:41;;;;;;;;;;;;;;;20.81;42.64;101246.03;4939133;28;3050;-61
2023/03/29 07:00:17;;;;;;;;;;;;;;;20.78;42.93;101258.81;4930568;28;5035;-64
2023/03/29 07:03:02;;;;;;;;;;;;;;;19.16;39.15;101255.81;4940051;28;3119;-62
2023/03/29 07:05:29;;;;;;;;;;;;;;;19.72;38.91;101256.06;4960110;28;2670;-63
2023/03/29 07:07:56;;;;;;;;;;;;;;;20.14;39.96;101245.41;4958763;28;3049;-63
2023/03/29 07:10:38;;;;;;;;;;;;;;;20.34;40.78;101252.22;4952941;28;3701;-63
2023/03/29 07:13:31;;;;;;;;;;;;;;;20.25;40.57;101247.44;4964628;28;1724;-62
2023/03/29 07:16:01;;;;;;;;;;;;;;;20.38;40.54;101249.53;4942775;28;2985;-63
2023/03/29 07:18:43;;;;;;;;;;;;;;;20.47;40.63;101254.34;4962803;28;2636;-63
2023/03/29 07:21:17;;;;;;;;;;;;;;;20.50;40.74;101253.06;4960846;28;3059;-63
2023/03/29 07:23:44;;;;;;;;;;;;;;;20.53;40.77;101244.56;4961446;28;2961;-63
2023/03/29 07:26:10;;;;;;;;;;;;;;;20.48;40.70;101255.84;4942660;28;3147;-65
2023/03/29 07:28:38;;;;;;;;;;;;;;;20.58;40.71;101240.53;4959483;28;3047;-62
2023/03/29 07:31:09;;;;;;;;;;;;;;;20.57;40.57;101242.66;4964298;28;2878;-63
2023/03/29 07:33:44;;;;;;;;;;;;;;;20.58;40.81;101252.78;4948001;28;5035;-60
2023/03/29 07:36:11;;;;;;;;;;;;;;;19.72;38.65;101250.31;4942728;28;3163;-60
2023/03/29 07:38:39;;;;;;;;;;;;;;;19.96;38.72;101248.78;4960966;28;3202;-60
2023/03/29 07:41:11;;;;;;;;;;;;;;;20.24;39.14;101243.06;4943111;28;3998;-60
2023/03/29 07:43:41;;;;;;;;;;;;;;;20.71;39.66;101234.75;4963464;28;5325;-63
2023/03/29 07:46:10;;;;;;;;;;;;;;;20.99;39.57;101236.81;4961780;28;5247;-62
2023/03/29 07:48:37;;;;;;;;;;;;;;;21.21;39.22;101237.94;4963979;28;3059;-62
2023/03/29 07:51:06;;;;;;;;;;;;;;;21.25;38.63;101234.47;4948318;28;1752;-62
2023/03/29 07:53:53;;;;;;;;;;;;;;;20.86;38.90;101241.22;4962453;28;3056;-62
2023/03/29 07:56:38;;;;;;;;;;;;;;;20.85;39.08;101240.47;4965288;28;1634;-62
2023/03/29 07:59:21;;;;;;;;;;;;;;;20.82;39.03;101232.38;4963706;28;1873;-62
2023/03/29 08:01:57;;;;;;;;;;;;;;;20.86;39.13;101233.31;4967447;28;1722;-62
2023/03/29 08:04:28;;;;;;;;;;;;;;;21.05;38.52;101225.59;4966072;28;2816;-61
2023/03/29 08:07:13;;;;;;;;;;;;;;;21.17;38.63;101231.97;4969548;28;2022;-62
2023/03/29 08:09:52;;;;;;;;;;;;;;;21.13;38.30;101241.13;4969812;28;1714;-61
2023/03/29 08:12:25;;;;;;;;;;;;;;;21.19;37.87;101234.94;4967884;28;1779;-60
2023/03/29 08:14:54;;;;;;;;;;;;;;;21.20;37.73;101233.53;4951222;28;1656;-61
2023/03/29 08:17:26;;;;;;;;;;;;;;;21.15;37.69;101220.34;4949477;28;4580;-63
2023/03/29 08:19:52;;;;;;;;;;;;;;;21.24;37.87;101225.09;4965262;28;5341;-62
2023/03/29 08:22:21;;;;;;;;;;;;;;;21.04;37.48;101215.47;4945551;28;4229;-61
2023/03/29 08:25:04;;;;;;;;;;;;;;;20.85;37.21;101208.81;4967138;28;2271;-62
2023/03/29 08:27:36;;;;;;;;;;;;;;;20.80;37.41;101210.00;4944977;28;2409;-61
2023/03/29 08:30:04;;;;;;;;;;;;;;;20.70;37.08;101212.34;4941780;28;3285;-62
2023/03/29 08:32:32;;;;;;;;;;;;;;;20.68;37.12;101203.63;4957541;28;3035;-63
2023/03/29 08:35:02;;;;;;;;;;;;;;;20.70;37.21;101206.59;4947748;28;3031;-63
2023/03/29 08:37:35;;;;;;;;;;;;;;;20.71;37.13;101203.09;4945540;28;3180;-62
2023/03/29 08:40:02;;;;;;;;;;;;;;;20.70;37.28;101195.09;4961805;28;3585;-62
2023/03/29 08:43:16;;;;;;;;;;;;;;;20.67;37.17;101190.63;4946922;28;2914;-62
2023/03/29 08:46:02;;;;;;;;;;;;;;;20.65;37.00;101184.78;4957530;28;3208;-63
2023/03/29 08:48:32;;;;;;;;;;;;;;;20.67;37.04;101190.63;4950805;28;2966;-63
2023/03/29 08:51:03;;;;;;;;;;;;;;;20.63;37.12;101184.66;4921005;28;2964;-62
2023/03/29 08:53:36;;;;;;;;;;;;;;;20.62;36.73;101183.94;4957173;28;3004;-63
2023/03/29 08:56:12;;;;;;;;;;;;;;;20.64;36.86;101191.94;4962332;28;3041;-63
2023/03/29 08:58:57;;;;;;;;;;;;;;;20.65;37.02;101199.16;4947589;28;3082;-63
2023/03/29 09:01:30;;;;;;;;;;;;;;;20.64;36.95;101184.03;4959504;28;3095;-63
2023/03/29 09:04:02;;;;;;;;;;;;;;;20.64;37.06;101186.91;4944722;28;3038;-63
2023/03/29 09:06:44;;;;;;;;;;;;;;;20.67;37.06;101176.25;4936325;28;3173;-63
2023/03/29 09:09:17;;;;;;;;;;;;;;;20.70;37.41;101178.56;4942082;28;3109;-65
2023/03/29 09:12:08;;;;;;;;;;;;;;;20.66;36.25;101174.75;4947497;28;2945;-65
2023/03/29 09:14:44;;;;;;;;;;;;;;;20.58;36.51;101180.09;4940986;28;3303;-65
2023/03/29 09:17:20;;;;;;;;;;;;;;;20.61;36.53;101181.69;4945922;28;3183;-65
2023/03/29 09:19:52;;;;;;;;;;;;;;;20.64;36.86;101183.28;4962468;28;3499;-65
2023/03/29 09:22:41;;;;;;;;;;;;;;;20.73;37.23;101178.66;4935806;28;3248;-63
2023/03/29 09:25:24;;;;;;;;;;;;;;;21.31;37.46;101177.91;4948438;28;3365;-63
2023/03/29 09:27:51;;;;;;;;;;;;;;;20.62;36.64;101183.19;4941145;28;3110;-63
2023/03/29 09:30:41;;;;;;;;;;;;;;;20.96;37.25;101178.41;4941361;28;5007;-64
2023/03/29 09:33:11;;;;;;;;;;;;;;;21.11;37.09;101171.19;4943709;28;4676;-65
2023/03/29 09:36:16;;;;;;;;;;;;;;;21.27;37.44;101174.84;4933018;28;3028;-65
2023/03/29 09:38:46;;;;;;;;;;;;;;;21.26;37.10;101176.25;4943779;28;3681;-66
2023/03/29 09:41:28;;;;;;;;;;;;;;;21.19;37.31;101170.81;4931615;28;3827;-63
2023/03/29 09:43:55;;;;;;;;;;;;;;;21.08;37.01;101164.59;4960822;28;2860;-61
2023/03/29 09:46:27;;;;;;;;;;;;;;;21.30;37.85;101155.50;4942802;28;3281;-62
2023/03/29 09:56:48;;;;;;;;;;;;;;;21.61;37.17;101148.34;4948572;28;3483;-60
2023/03/29 09:59:18;;;;;;;;;;;;;;;21.64;37.23;101142.00;4957742;28;4573;-59
2023/03/29 10:01:44;;;;;;;;;;;;;;;21.67;37.45;101149.34;4936733;28;5472;-59
2023/03/29 10:04:12;;;;;;;;;;;;;;;21.73;37.46;101140.97;4966241;28;3093;-58
2023/03/29 10:06:43;;;;;;;;;;;;;;;21.68;37.52;101147.94;4964954;28;3121;-60
2023/03/29 10:09:13;;;;;;;;;;;;;;;21.83;37.57;101139.94;4932333;28;4655;-59
2023/03/29 10:11:45;;;;;;;;;;;;;;;21.93;37.56;101140.41;4964309;28;3093;-58
2023/03/29 10:14:13;;;;;;;;;;;;;;;21.92;37.73;101131.00;4952248;28;3160;-51
2023/03/29 10:16:40;;;;;;;;;;;;;;;21.82;37.31;101132.69;4941028;28;1779;-55
2023/03/29 10:19:20;;;;;;;;;;;;;;;21.76;37.87;101130.25;4966914;28;1687;-56
2023/03/29 10:21:47;;;;;;;;;;;;;;;21.77;38.20;101128.16;4966327;28;1695;-59
2023/03/29 10:24:17;;;;;;;;;;;;;;;21.79;37.91;101114.56;4964273;28;1631;-59
2023/03/29 10:26:43;;;;;;;;;;;;;;;21.83;37.63;101106.09;4963576;28;2863;-58
2023/03/29 10:29:09;;;;;;;;;;;;;;;21.74;37.11;101118.66;4967381;28;1919;-59
2023/03/29 10:31:40;;;;;;;;;;;;;;;21.51;37.03;101116.91;4966826;28;1844;-56
2023/03/29 10:34:07;;;;;;;;;;;;;;;21.42;37.17;101121.56;4954138;28;1674;-55
2023/03/29 10:36:34;;;;;;;;;;;;;;;21.33;37.37;101114.66;4965688;28;1952;-57
2023/03/29 10:39:02;;;;;;;;;;;;;;;21.55;38.63;101111.31;4966211;28;4083;-55
2023/03/29 10:41:32;;;;;;;;;;;;;;;21.66;37.62;101109.66;4967506;28;2910;-57
2023/03/29 10:43:59;;;;;;;;;;;;;;;21.70;37.98;101104.81;4966481;28;3993;-57
2023/03/29 10:46:32;;;;;;;;;;;;;;;21.59;38.34;101105.75;4965557;28;2328;-55
2023/03/29 10:49:01;;;;;;;;;;;;;;;21.73;37.89;101097.00;4967287;28;1918;-57
2023/03/29 10:51:29;;;;;;;;;;;;;;;21.48;38.27;101095.16;4960665;28;4683;-58
2023/03/29 10:53:56;;;;;;;;;;;;;;;21.32;38.47;101095.84;4963631;28;4621;-57
2023/03/29 10:56:28;;;;;;;;;;;;;;;21.37;38.19;101096.06;4969025;28;3026;-54
2023/03/29 10:58:59;;;;;;;;;;;;;;;21.37;38.28;101087.41;4964028;28;4740;-55
2023/03/29 11:01:26;;;;;;;;;;;;;;;21.36;38.42;101080.19;4961691;28;4462;-57
2023/03/29 11:04:15;;;;;;;;;;;;;;;21.50;38.39;101086.59;4963902;28;2560;-57
2023/03/29 11:06:52;;;;;;;;;;;;;;;21.59;38.33;101088.47;4961768;28;2459;-57
2023/03/29 11:09:44;;;;;;;;;;;;;;;21.54;37.46;101086.78;4967125;28;1966;-57
2023/03/29 11:12:29;;;;;;;;;;;;;;;21.26;38.44;101084.06;4966875;28;1816;-58
2023/03/29 11:15:06;;;;;;;;;;;;;;;21.34;38.29;101075.78;4959934;28;4686;-55
2023/03/29 11:17:37;;;;;;;;;;;;;;;21.31;38.09;101091.50;4965170;28;4402;-56
2023/03/29 11:20:11;;;;;;;;;;;;;;;21.27;38.50;101088.44;4947476;28;1837;-55
2023/03/29 11:22:53;;;;;;;;;;;;;;;21.56;38.18;101083.28;4961393;28;2971;-58
2023/03/29 11:25:22;;;;;;;;;;;;;;;21.73;37.86;101077.56;4960534;28;4683;-58
2023/03/29 11:27:54;;;;;;;;;;;;;;;21.65;37.56;101074.31;4950835;28;2684;-55
2023/03/29 11:30:24;;;;;;;;;;;;;;;21.57;37.86;101068.19;4949203;28;2302;-56
2023/03/29 11:32:58;;;;;;;;;;;;;;;21.68;37.56;101073.00;4966007;28;2259;-53
2023/03/29 11:35:33;;;;;;;;;;;;;;;21.65;37.36;101067.81;4966184;28;1749;-51
2023/03/29 11:38:17;;;;;;;;;;;;;;;21.58;37.35;101063.16;4945905;28;1739;-58
2023/03/29 11:41:01;;;;;;;;;;;;;;;21.58;37.94;101063.94;4962046;28;4508;-58
2023/03/29 11:43:28;;;;;;;;;;;;;;;21.59;37.37;101067.56;4963324;28;2206;-59
2023/03/29 11:45:56;;;;;;;;;;;;;;;21.58;37.35;101063.94;4966483;28;2186;-58
2023/03/29 11:48:24;;;;;;;;;;;;;;;21.61;37.51;101062.63;4946696;28;4839;-60
2023/03/29 11:50:56;;;;;;;;;;;;;;;21.65;37.62;101073.59;4965126;28;2428;-58
2023/03/29 11:53:24;;;;;;;;;;;;;;;21.75;37.58;101071.88;4965295;28;1702;-58
2023/03/29 11:55:51;;;;;;;;;;;;;;;21.58;37.95;101063.94;4962998;28;2270;-58
2023/03/29 11:58:21;;;;;;;;;;;;;;;21.65;37.80;101062.81;4962198;28;4423;-58
2023/03/29 12:00:55;;;;;;;;;;;;;;;21.47;37.23;101070.63;4965500;28;3320;-53
2023/03/29 12:03:39;;;;;;;;;;;;;;;21.24;37.72;101077.47;4963394;28;4494;-54
2023/03/29 12:06:16;;;;;;;;;;;;;;;19.80;35.75;101063.97;4955606;28;2279;-58
2023/03/29 12:08:51;;;;;;;;;;;;;;;20.19;35.27;101072.44;4963556;28;1978;-60
2023/03/29 12:11:20;;;;;;;;;;;;;;;20.55;34.86;101064.16;4949730;28;4712;-58
2023/03/29 12:13:47;;;;;;;;;;;;;;;21.11;36.58;101065.38;4958447;28;4701;-57
2023/03/29 12:16:16;;;;;;;;;;;;;;;21.38;36.97;101055.09;4959377;28;4723;-58
2023/03/29 12:18:45;;;;;;;;;;;;;;;21.51;36.98;101060.03;4961376;28;4638;-56
2023/03/29 12:21:13;;;;;;;;;;;;;;;21.58;37.01;101052.41;4950343;28;4389;-58
2023/03/29 12:23:40;;;;;;;;;;;;;;;21.60;37.09;101055.38;4946212;28;2575;-58
2023/03/29 12:26:11;;;;;;;;;;;;;;;21.59;36.91;101053.88;4962703;28;2376;-58
2023/03/29 12:28:56;;;;;;;;;;;;;;;21.60;36.82;101055.38;4947535;28;2344;-57
2023/03/29 12:31:41;;;;;;;;;;;;;;;21.65;36.78;101042.63;4962641;28;1782;-60
2023/03/29 12:34:13;;;;;;;;;;;;;;;21.62;36.46;101038.16;4963744;28;2383;-55
2023/03/29 12:37:18;;;;;;;;;;;;;;;21.60;36.69;101043.84;4907877;28;1727;-58
2023/03/29 12:39:44;;;;;;;;;;;;;;;21.68;37.00;101029.78;4958462;28;4799;-59
2023/03/29 12:42:43;;;;;;;;;;;;;;;21.61;36.81;101025.16;4947342;28;2796;-57
2023/03/29 12:45:50;;;;;;;;;;;;;;;21.61;36.81;101028.03;4933459;28;3071;-58
2023/03/29 12:48:18;;;;;;;;;;;;;;;21.64;36.45;101026.72;4914721;29;3664;-58
2023/03/29 12:50:45;;;;;;;;;;;;;;;21.55;36.95;101030.63;4952882;28;3129;-61
2023/03/29 12:53:22;;;;;;;;;;;;;;;21.57;37.05;101013.44;4969057;28;2314;-60
2023/03/29 12:56:07;;;;;;;;;;;;;;;21.54;36.91;101000.34;4950735;28;2483;-60
2023/03/29 12:58:41;;;;;;;;;;;;;;;21.55;36.78;100996.06;4968052;28;1760;-61
2023/03/29 13:01:09;;;;;;;;;;;;;;;21.60;36.87;100991.97;4965934;28;1674;-60
2023/03/29 13:03:38;;;;;;;;;;;;;;;21.59;37.01;100993.38;4966678;28;1872;-60
2023/03/29 13:06:08;;;;;;;;;;;;;;;21.42;36.95;100999.81;4966640;28;3291;-60
2023/03/29 13:08:35;;;;;;;;;;;;;;;21.57;37.28;100999.03;4947311;28;4387;-67
2023/03/29 13:11:02;;;;;;;;;;;;;;;21.55;37.05;100998.94;4967326;28;3712;-60
2023/03/29 13:13:29;;;;;;;;;;;;;;;21.58;37.09;100997.66;4966159;28;3025;-59
2023/03/29 13:16:06;;;;;;;;;;;;;;;21.33;37.27;101008.06;4939210;28;4731;-63
2023/03/29 13:19:00;;;;;;;;;;;;;;;21.25;36.93;101009.84;4949657;28;3171;-61
2023/03/29 13:21:45;;;;;;;;;;;;;;;21.16;37.27;100999.34;4954413;28;3668;-63
2023/03/29 13:24:22;;;;;;;;;;;;;;;21.17;37.41;101003.72;4960013;28;3065;-63